sensor_id;sensor_type;location;lat;lon;timestamp;pressure;altitude;pressure_sealevel;temperature
37452;BMP280;23314;51.114;6.900;2023-03-14T00:01:56;98846.44;;;12.57
37452;BMP280;23314;51.114;6.900;2023-03-14T00:04:22;98835.13;;;12.62
37452;BMP280;23314;51.114;6.900;2023-03-14T00:06:47;98824.94;;;12.66
37452;BMP280;23314;51.114;6.900;2023-03-14T00:09:14;98825.47;;;12.70
37452;BMP280;23314;51.114;6.900;2023-03-14T00:11:40;98826.50;;;12.73
37452;BMP280;23314;51.114;6.900;2023-03-14T00:14:05;98817.28;;;12.74
37452;BMP280;23314;51.114;6.900;2023-03-14T00:16:31;98829.19;;;12.73
37452;BMP280;23314;51.114;6.900;2023-03-14T00:18:58;98841.81;;;12.72
37452;BMP280;23314;51.114;6.900;2023-03-14T00:21:24;98858.16;;;12.74
37452;BMP280;23314;51.114;6.900;2023-03-14T00:23:49;98865.97;;;12.78
37452;BMP280;23314;51.114;6.900;2023-03-14T00:26:17;98890.31;;;12.80
37452;BMP280;23314;51.114;6.900;2023-03-14T00:28:45;98898.63;;;12.82
37452;BMP280;23314;51.114;6.900;2023-03-14T00:31:15;98899.91;;;12.86
37452;BMP280;23314;51.114;6.900;2023-03-14T00:33:42;98897.50;;;12.88
37452;BMP280;23314;51.114;6.900;2023-03-14T00:36:10;98900.72;;;12.93
37452;BMP280;23314;51.114;6.900;2023-03-14T00:38:37;98895.22;;;12.96
37452;BMP280;23314;51.114;6.900;2023-03-14T00:41:04;98880.88;;;12.99
37452;BMP280;23314;51.114;6.900;2023-03-14T00:43:29;98878.75;;;13.03
37452;BMP280;23314;51.114;6.900;2023-03-14T00:45:55;98875.16;;;13.07
37452;BMP280;23314;51.114;6.900;2023-03-14T00:48:20;98892.25;;;13.09
37452;BMP280;23314;51.114;6.900;2023-03-14T00:50:46;98930.69;;;13.12
37452;BMP280;23314;51.114;6.900;2023-03-14T00:53:12;98946.56;;;13.15
37452;BMP280;23314;51.114;6.900;2023-03-14T00:55:39;98963.19;;;13.04
37452;BMP280;23314;51.114;6.900;2023-03-14T00:58:05;98956.56;;;12.85
37452;BMP280;23314;51.114;6.900;2023-03-14T01:00:30;98961.06;;;12.64
37452;BMP280;23314;51.114;6.900;2023-03-14T01:02:55;98934.09;;;12.37
37452;BMP280;23314;51.114;6.900;2023-03-14T01:05:22;98929.91;;;12.21
37452;BMP280;23314;51.114;6.900;2023-03-14T01:07:47;98928.41;;;12.05
37452;BMP280;23314;51.114;6.900;2023-03-14T01:10:12;98931.31;;;11.93
37452;BMP280;23314;51.114;6.900;2023-03-14T01:12:38;98909.25;;;11.83
37452;BMP280;23314;51.114;6.900;2023-03-14T01:15:04;98914.69;;;11.73
37452;BMP280;23314;51.114;6.900;2023-03-14T01:17:29;98917.69;;;11.66
37452;BMP280;23314;51.114;6.900;2023-03-14T01:19:54;98909.09;;;11.62
37452;BMP280;23314;51.114;6.900;2023-03-14T01:22:20;98913.41;;;11.60
37452;BMP280;23314;51.114;6.900;2023-03-14T01:24:46;98909.72;;;11.57
37452;BMP280;23314;51.114;6.900;2023-03-14T01:27:12;98899.19;;;11.53
37452;BMP280;23314;51.114;6.900;2023-03-14T01:29:37;98888.25;;;11.51
37452;BMP280;23314;51.114;6.900;2023-03-14T01:32:03;98887.94;;;11.49
37452;BMP280;23314;51.114;6.900;2023-03-14T01:34:28;98870.91;;;11.47
37452;BMP280;23314;51.114;6.900;2023-03-14T01:36:53;98868.66;;;11.45
37452;BMP280;23314;51.114;6.900;2023-03-14T01:39:19;98862.03;;;11.40
37452;BMP280;23314;51.114;6.900;2023-03-14T01:41:44;98867.09;;;11.38
37452;BMP280;23314;51.114;6.900;2023-03-14T01:44:13;98874.38;;;11.38
37452;BMP280;23314;51.114;6.900;2023-03-14T01:46:43;98879.69;;;11.38
37452;BMP280;23314;51.114;6.900;2023-03-14T01:52:16;98877.88;;;11.44
37452;BMP280;23314;51.114;6.900;2023-03-14T01:54:46;98876.84;;;11.51
37452;BMP280;23314;51.114;6.900;2023-03-14T01:57:23;98863.28;;;11.54
37452;BMP280;23314;51.114;6.900;2023-03-14T01:59:57;98860.47;;;11.58
37452;BMP280;23314;51.114;6.900;2023-03-14T02:02:24;98855.88;;;11.59
37452;BMP280;23314;51.114;6.900;2023-03-14T02:04:52;98859.44;;;11.55
37452;BMP280;23314;51.114;6.900;2023-03-14T02:10:17;98858.47;;;11.44
37452;BMP280;23314;51.114;6.900;2023-03-14T02:12:46;98871.81;;;11.44
37452;BMP280;23314;51.114;6.900;2023-03-14T02:15:12;98873.56;;;11.47
37452;BMP280;23314;51.114;6.900;2023-03-14T02:17:37;98863.19;;;11.49
37452;BMP280;23314;51.114;6.900;2023-03-14T02:20:14;98859.34;;;11.50
37452;BMP280;23314;51.114;6.900;2023-03-14T02:22:44;98853.53;;;11.51
37452;BMP280;23314;51.114;6.900;2023-03-14T02:27:51;98859.16;;;11.53
37452;BMP280;23314;51.114;6.900;2023-03-14T02:30:25;98861.09;;;11.53
37452;BMP280;23314;51.114;6.900;2023-03-14T02:32:59;98860.34;;;11.52
37452;BMP280;23314;51.114;6.900;2023-03-14T02:35:33;98860.34;;;11.52
37452;BMP280;23314;51.114;6.900;2023-03-14T02:38:15;98864.47;;;11.53
37452;BMP280;23314;51.114;6.900;2023-03-14T02:40:44;98852.63;;;11.54
37452;BMP280;23314;51.114;6.900;2023-03-14T02:43:10;98846.81;;;11.56
37452;BMP280;23314;51.114;6.900;2023-03-14T02:45:44;98842.53;;;11.59
37452;BMP280;23314;51.114;6.900;2023-03-14T02:48:22;98849.31;;;11.60
37452;BMP280;23314;51.114;6.900;2023-03-14T02:50:51;98843.53;;;11.61
37452;BMP280;23314;51.114;6.900;2023-03-14T02:53:21;98847.97;;;11.64
37452;BMP280;23314;51.114;6.900;2023-03-14T02:55:48;98848.72;;;11.65
37452;BMP280;23314;51.114;6.900;2023-03-14T02:58:14;98847.03;;;11.67
37452;BMP280;23314;51.114;6.900;2023-03-14T03:00:39;98838.56;;;11.69
37452;BMP280;23314;51.114;6.900;2023-03-14T03:03:04;98835.16;;;11.68
37452;BMP280;23314;51.114;6.900;2023-03-14T03:05:31;98828.34;;;11.67
37452;BMP280;23314;51.114;6.900;2023-03-14T03:07:56;98823.72;;;11.68
37452;BMP280;23314;51.114;6.900;2023-03-14T03:10:22;98823.00;;;11.67
37452;BMP280;23314;51.114;6.900;2023-03-14T03:12:47;98816.69;;;11.65
37452;BMP280;23314;51.114;6.900;2023-03-14T03:15:12;98822.00;;;11.65
37452;BMP280;23314;51.114;6.900;2023-03-14T03:17:38;98815.91;;;11.64
37452;BMP280;23314;51.114;6.900;2023-03-14T03:20:03;98819.34;;;11.65
37452;BMP280;23314;51.114;6.900;2023-03-14T03:22:30;98817.66;;;11.67
37452;BMP280;23314;51.114;6.900;2023-03-14T03:24:55;98815.28;;;11.69
37452;BMP280;23314;51.114;6.900;2023-03-14T03:27:21;98818.97;;;11.72
37452;BMP280;23314;51.114;6.900;2023-03-14T03:29:46;98811.25;;;11.74
37452;BMP280;23314;51.114;6.900;2023-03-14T03:32:12;98800.13;;;11.76
37452;BMP280;23314;51.114;6.900;2023-03-14T03:35:04;98813.47;;;11.76
37452;BMP280;23314;51.114;6.900;2023-03-14T03:37:48;98813.75;;;11.78
37452;BMP280;23314;51.114;6.900;2023-03-14T03:40:33;98829.03;;;11.77
37452;BMP280;23314;51.114;6.900;2023-03-14T03:42:59;98826.66;;;11.79
37452;BMP280;23314;51.114;6.900;2023-03-14T03:45:25;98826.19;;;11.81
37452;BMP280;23314;51.114;6.900;2023-03-14T03:47:51;98816.25;;;11.81
37452;BMP280;23314;51.114;6.900;2023-03-14T03:50:16;98800.22;;;11.81
37452;BMP280;23314;51.114;6.900;2023-03-14T03:53:07;98808.94;;;11.82
37452;BMP280;23314;51.114;6.900;2023-03-14T03:55:57;98807.03;;;11.82
37452;BMP280;23314;51.114;6.900;2023-03-14T03:58:47;98797.06;;;11.83
37452;BMP280;23314;51.114;6.900;2023-03-14T04:01:12;98789.06;;;11.83
37452;BMP280;23314;51.114;6.900;2023-03-14T04:03:37;98791.28;;;11.84
37452;BMP280;23314;51.114;6.900;2023-03-14T04:06:11;98774.06;;;11.85
37452;BMP280;23314;51.114;6.900;2023-03-14T04:08:59;98786.38;;;11.83
37452;BMP280;23314;51.114;6.900;2023-03-14T04:11:50;98787.56;;;11.82
37452;BMP280;23314;51.114;6.900;2023-03-14T04:14:35;98789.53;;;11.81
37452;BMP280;23314;51.114;6.900;2023-03-14T04:17:22;98782.91;;;11.77
37452;BMP280;23314;51.114;6.900;2023-03-14T04:20:13;98786.00;;;11.75
37452;BMP280;23314;51.114;6.900;2023-03-14T04:22:40;98779.22;;;11.74
37452;BMP280;23314;51.114;6.900;2023-03-14T04:25:06;98776.25;;;11.72
37452;BMP280;23314;51.114;6.900;2023-03-14T04:27:31;98768.41;;;11.68
37452;BMP280;23314;51.114;6.900;2023-03-14T04:29:57;98764.47;;;11.64
37452;BMP280;23314;51.114;6.900;2023-03-14T04:32:22;98760.75;;;11.61
37452;BMP280;23314;51.114;6.900;2023-03-14T04:35:13;98755.63;;;11.57
37452;BMP280;23314;51.114;6.900;2023-03-14T04:37:42;98756.34;;;11.58
37452;BMP280;23314;51.114;6.900;2023-03-14T04:40:10;98748.78;;;11.56
37452;BMP280;23314;51.114;6.900;2023-03-14T04:42:36;98752.19;;;11.57
37452;BMP280;23314;51.114;6.900;2023-03-14T04:45:02;98738.13;;;11.56
37452;BMP280;23314;51.114;6.900;2023-03-14T04:47:27;98740.78;;;11.56
37452;BMP280;23314;51.114;6.900;2023-03-14T04:49:53;98733.50;;;11.57
37452;BMP280;23314;51.114;6.900;2023-03-14T04:52:18;98724.75;;;11.56
37452;BMP280;23314;51.114;6.900;2023-03-14T04:54:43;98718.66;;;11.56
37452;BMP280;23314;51.114;6.900;2023-03-14T04:57:09;98721.34;;;11.56
37452;BMP280;23314;51.114;6.900;2023-03-14T04:59:34;98719.13;;;11.54
37452;BMP280;23314;51.114;6.900;2023-03-14T05:01:59;98721.06;;;11.54
37452;BMP280;23314;51.114;6.900;2023-03-14T05:04:25;98716.47;;;11.54
37452;BMP280;23314;51.114;6.900;2023-03-14T05:06:50;98713.34;;;11.56
37452;BMP280;23314;51.114;6.900;2023-03-14T05:09:15;98709.47;;;11.57
37452;BMP280;23314;51.114;6.900;2023-03-14T05:11:41;98706.81;;;11.57
37452;BMP280;23314;51.114;6.900;2023-03-14T05:14:06;98702.22;;;11.57
37452;BMP280;23314;51.114;6.900;2023-03-14T05:16:31;98698.78;;;11.57
37452;BMP280;23314;51.114;6.900;2023-03-14T05:18:57;98703.69;;;11.59
37452;BMP280;23314;51.114;6.900;2023-03-14T05:21:22;98707.06;;;11.59
37452;BMP280;23314;51.114;6.900;2023-03-14T05:23:47;98696.88;;;11.57
37452;BMP280;23314;51.114;6.900;2023-03-14T05:26:13;98694.94;;;11.58
37452;BMP280;23314;51.114;6.900;2023-03-14T05:28:38;98699.81;;;11.60
37452;BMP280;23314;51.114;6.900;2023-03-14T05:31:07;98690.59;;;11.61
37452;BMP280;23314;51.114;6.900;2023-03-14T05:33:33;98694.00;;;11.61
37452;BMP280;23314;51.114;6.900;2023-03-14T05:35:58;98693.84;;;11.65
37452;BMP280;23314;51.114;6.900;2023-03-14T05:38:23;98697.25;;;11.65
37452;BMP280;23314;51.114;6.900;2023-03-14T05:40:49;98687.31;;;11.66
37452;BMP280;23314;51.114;6.900;2023-03-14T05:43:14;98696.59;;;11.70
37452;BMP280;23314;51.114;6.900;2023-03-14T05:45:41;98695.69;;;11.73
37452;BMP280;23314;51.114;6.900;2023-03-14T05:48:07;98686.75;;;11.77
37452;BMP280;23314;51.114;6.900;2023-03-14T05:50:32;98684.34;;;11.79
37452;BMP280;23314;51.114;6.900;2023-03-14T05:52:57;98693.66;;;11.83
37452;BMP280;23314;51.114;6.900;2023-03-14T05:55:23;98687.13;;;11.84
37452;BMP280;23314;51.114;6.900;2023-03-14T05:57:48;98685.19;;;11.85
37452;BMP280;23314;51.114;6.900;2023-03-14T06:00:14;98689.03;;;11.84
37452;BMP280;23314;51.114;6.900;2023-03-14T06:02:39;98685.47;;;11.87
37452;BMP280;23314;51.114;6.900;2023-03-14T06:05:05;98685.75;;;11.89
37452;BMP280;23314;51.114;6.900;2023-03-14T06:07:30;98694.03;;;11.91
37452;BMP280;23314;51.114;6.900;2023-03-14T06:09:56;98689.88;;;11.90
37452;BMP280;23314;51.114;6.900;2023-03-14T06:12:21;98689.41;;;11.92
37452;BMP280;23314;51.114;6.900;2023-03-14T06:14:46;98679.75;;;11.94
37452;BMP280;23314;51.114;6.900;2023-03-14T06:17:12;98683.50;;;12.02
37452;BMP280;23314;51.114;6.900;2023-03-14T06:19:37;98687.00;;;12.09
37452;BMP280;23314;51.114;6.900;2023-03-14T06:22:02;98684.88;;;12.13
37452;BMP280;23314;51.114;6.900;2023-03-14T06:24:27;98688.84;;;12.17
37452;BMP280;23314;51.114;6.900;2023-03-14T06:26:54;98692.53;;;12.20
37452;BMP280;23314;51.114;6.900;2023-03-14T06:29:19;98684.03;;;12.21
37452;BMP280;23314;51.114;6.900;2023-03-14T06:31:45;98684.31;;;12.23
37452;BMP280;23314;51.114;6.900;2023-03-14T06:34:10;98686.56;;;12.25
37452;BMP280;23314;51.114;6.900;2023-03-14T06:36:35;98687.28;;;12.26
37452;BMP280;23314;51.114;6.900;2023-03-14T06:39:01;98700.44;;;12.29
37452;BMP280;23314;51.114;6.900;2023-03-14T06:41:26;98699.53;;;12.32
37452;BMP280;23314;51.114;6.900;2023-03-14T06:43:52;98695.19;;;12.35
37452;BMP280;23314;51.114;6.900;2023-03-14T06:46:17;98704.22;;;12.37
37452;BMP280;23314;51.114;6.900;2023-03-14T06:48:42;98698.13;;;12.37
37452;BMP280;23314;51.114;6.900;2023-03-14T06:51:08;98699.16;;;12.39
37452;BMP280;23314;51.114;6.900;2023-03-14T06:53:33;98703.28;;;12.41
37452;BMP280;23314;51.114;6.900;2023-03-14T06:55:58;98711.09;;;12.44
37452;BMP280;23314;51.114;6.900;2023-03-14T06:58:24;98710.19;;;12.47
37452;BMP280;23314;51.114;6.900;2023-03-14T07:00:49;98708.34;;;12.53
37452;BMP280;23314;51.114;6.900;2023-03-14T07:03:14;98703.97;;;12.56
37452;BMP280;23314;51.114;6.900;2023-03-14T07:05:40;98701.78;;;12.54
37452;BMP280;23314;51.114;6.900;2023-03-14T07:08:06;98713.94;;;12.55
37452;BMP280;23314;51.114;6.900;2023-03-14T07:10:31;98701.13;;;12.60
37452;BMP280;23314;51.114;6.900;2023-03-14T07:12:57;98713.81;;;12.65
37452;BMP280;23314;51.114;6.900;2023-03-14T07:15:22;98710.31;;;12.74
37452;BMP280;23314;51.114;6.900;2023-03-14T07:17:47;98712.69;;;12.71
37452;BMP280;23314;51.114;6.900;2023-03-14T07:20:13;98717.09;;;12.75
37452;BMP280;23314;51.114;6.900;2023-03-14T07:22:38;98723.00;;;12.79
37452;BMP280;23314;51.114;6.900;2023-03-14T07:25:04;98726.41;;;12.79
37452;BMP280;23314;51.114;6.900;2023-03-14T07:27:29;98726.41;;;12.79
37452;BMP280;23314;51.114;6.900;2023-03-14T07:29:55;98728.75;;;12.92
37452;BMP280;23314;51.114;6.900;2023-03-14T07:32:20;98729.81;;;13.00
37452;BMP280;23314;51.114;6.900;2023-03-14T07:34:45;98732.88;;;13.08
37452;BMP280;23314;51.114;6.900;2023-03-14T07:37:11;98730.78;;;13.18
37452;BMP280;23314;51.114;6.900;2023-03-14T07:39:36;98727.94;;;13.27
37452;BMP280;23314;51.114;6.900;2023-03-14T07:42:01;98731.16;;;13.31
37452;BMP280;23314;51.114;6.900;2023-03-14T07:44:27;98737.00;;;13.30
37452;BMP280;23314;51.114;6.900;2023-03-14T07:46:52;98736.72;;;13.28
37452;BMP280;23314;51.114;6.900;2023-03-14T07:49:18;98732.84;;;13.29
37452;BMP280;23314;51.114;6.900;2023-03-14T07:51:43;98741.16;;;13.31
37452;BMP280;23314;51.114;6.900;2023-03-14T07:54:11;98743.09;;;13.30
37452;BMP280;23314;51.114;6.900;2023-03-14T07:56:37;98734.84;;;13.34
37452;BMP280;23314;51.114;6.900;2023-03-14T07:59:02;98734.38;;;13.35
37452;BMP280;23314;51.114;6.900;2023-03-14T08:01:29;98739.50;;;13.39
37452;BMP280;23314;51.114;6.900;2023-03-14T08:03:54;98742.34;;;13.50
37452;BMP280;23314;51.114;6.900;2023-03-14T08:06:19;98745.38;;;13.64
37452;BMP280;23314;51.114;6.900;2023-03-14T08:08:45;98744.47;;;13.73
37452;BMP280;23314;51.114;6.900;2023-03-14T08:11:10;98745.75;;;13.77
37452;BMP280;23314;51.114;6.900;2023-03-14T08:13:36;98745.28;;;13.84
37452;BMP280;23314;51.114;6.900;2023-03-14T08:16:04;98745.88;;;13.94
37452;BMP280;23314;51.114;6.900;2023-03-14T08:18:30;98750.81;;;14.01
37452;BMP280;23314;51.114;6.900;2023-03-14T08:20:55;98754.97;;;14.02
37452;BMP280;23314;51.114;6.900;2023-03-14T08:23:20;98753.06;;;14.09
37452;BMP280;23314;51.114;6.900;2023-03-14T08:25:48;98759.25;;;14.20
37452;BMP280;23314;51.114;6.900;2023-03-14T08:28:13;98752.53;;;14.36
37452;BMP280;23314;51.114;6.900;2023-03-14T08:30:39;98754.00;;;14.38
37452;BMP280;23314;51.114;6.900;2023-03-14T08:33:04;98762.97;;;14.29
37452;BMP280;23314;51.114;6.900;2023-03-14T08:35:29;98764.13;;;14.22
37452;BMP280;23314;51.114;6.900;2023-03-14T08:37:55;98763.38;;;14.16
37452;BMP280;23314;51.114;6.900;2023-03-14T08:40:20;98757.03;;;14.19
37452;BMP280;23314;51.114;6.900;2023-03-14T08:42:46;98762.44;;;14.25
37452;BMP280;23314;51.114;6.900;2023-03-14T08:45:13;98766.16;;;14.33
37452;BMP280;23314;51.114;6.900;2023-03-14T08:47:38;98764.00;;;14.43
37452;BMP280;23314;51.114;6.900;2023-03-14T08:50:05;98761.31;;;14.43
37452;BMP280;23314;51.114;6.900;2023-03-14T08:52:31;98771.88;;;14.46
37452;BMP280;23314;51.114;6.900;2023-03-14T08:54:57;98769.38;;;14.43
37452;BMP280;23314;51.114;6.900;2023-03-14T08:57:22;98775.22;;;14.41
37452;BMP280;23314;51.114;6.900;2023-03-14T08:59:53;98779.88;;;14.41
37452;BMP280;23314;51.114;6.900;2023-03-14T09:02:19;98787.84;;;14.35
37452;BMP280;23314;51.114;6.900;2023-03-14T09:04:45;98793.41;;;14.26
37452;BMP280;23314;51.114;6.900;2023-03-14T09:07:10;98800.63;;;14.14
37452;BMP280;23314;51.114;6.900;2023-03-14T09:09:36;98798.09;;;14.04
37452;BMP280;23314;51.114;6.900;2023-03-14T09:12:01;98807.78;;;13.96
37452;BMP280;23314;51.114;6.900;2023-03-14T09:14:26;98813.50;;;13.83
37452;BMP280;23314;51.114;6.900;2023-03-14T09:16:52;98806.59;;;13.71
37452;BMP280;23314;51.114;6.900;2023-03-14T09:19:17;98817.16;;;13.60
37452;BMP280;23314;51.114;6.900;2023-03-14T09:21:42;98823.94;;;13.55
37452;BMP280;23314;51.114;6.900;2023-03-14T09:24:08;98822.72;;;13.56
37452;BMP280;23314;51.114;6.900;2023-03-14T09:26:33;98837.25;;;13.49
37452;BMP280;23314;51.114;6.900;2023-03-14T09:28:58;98873.88;;;13.37
37452;BMP280;23314;51.114;6.900;2023-03-14T09:31:24;98891.56;;;13.14
37452;BMP280;23314;51.114;6.900;2023-03-14T09:33:49;98891.44;;;12.88
37452;BMP280;23314;51.114;6.900;2023-03-14T09:36:14;98905.84;;;12.61
37452;BMP280;23314;51.114;6.900;2023-03-14T09:38:40;98919.34;;;12.42
37452;BMP280;23314;51.114;6.900;2023-03-14T09:41:14;98940.91;;;12.23
37452;BMP280;23314;51.114;6.900;2023-03-14T09:43:42;98953.66;;;12.04
37452;BMP280;23314;51.114;6.900;2023-03-14T09:46:09;98969.78;;;11.86
37452;BMP280;23314;51.114;6.900;2023-03-14T09:48:36;98976.16;;;11.55
37452;BMP280;23314;51.114;6.900;2023-03-14T09:51:05;98980.56;;;11.24
37452;BMP280;23314;51.114;6.900;2023-03-14T09:53:39;98989.78;;;11.05
37452;BMP280;23314;51.114;6.900;2023-03-14T09:56:11;98999.59;;;10.89
37452;BMP280;23314;51.114;6.900;2023-03-14T09:58:38;99018.56;;;10.73
37452;BMP280;23314;51.114;6.900;2023-03-14T10:01:09;99028.94;;;10.62
37452;BMP280;23314;51.114;6.900;2023-03-14T10:03:36;99034.09;;;10.47
37452;BMP280;23314;51.114;6.900;2023-03-14T10:06:01;99046.69;;;10.37
37452;BMP280;23314;51.114;6.900;2023-03-14T10:08:27;99063.94;;;10.23
37452;BMP280;23314;51.114;6.900;2023-03-14T10:10:53;99071.47;;;10.15
37452;BMP280;23314;51.114;6.900;2023-03-14T10:13:22;99093.19;;;10.04
37452;BMP280;23314;51.114;6.900;2023-03-14T10:16:00;99086.56;;;9.87
37452;BMP280;23314;51.114;6.900;2023-03-14T10:18:29;99122.16;;;9.71
37452;BMP280;23314;51.114;6.900;2023-03-14T10:23:33;99132.59;;;9.43
37452;BMP280;23314;51.114;6.900;2023-03-14T10:26:26;99152.06;;;9.40
37452;BMP280;23314;51.114;6.900;2023-03-14T10:28:54;99155.16;;;9.38
37452;BMP280;23314;51.114;6.900;2023-03-14T10:31:25;99164.22;;;9.41
37452;BMP280;23314;51.114;6.900;2023-03-14T10:34:03;99175.06;;;9.46
37452;BMP280;23314;51.114;6.900;2023-03-14T10:36:32;99175.22;;;9.52
37452;BMP280;23314;51.114;6.900;2023-03-14T10:41:48;99190.66;;;9.57
37452;BMP280;23314;51.114;6.900;2023-03-14T10:44:16;99195.13;;;9.60
37452;BMP280;23314;51.114;6.900;2023-03-14T10:46:44;99212.91;;;9.63
37452;BMP280;23314;51.114;6.900;2023-03-14T10:49:25;99203.75;;;9.65
37452;BMP280;23314;51.114;6.900;2023-03-14T10:51:51;99215.41;;;9.67
37452;BMP280;23314;51.114;6.900;2023-03-14T10:54:21;99231.31;;;9.71
37452;BMP280;23314;51.114;6.900;2023-03-14T10:56:56;99231.31;;;9.71
37452;BMP280;23314;51.114;6.900;2023-03-14T10:59:22;99241.38;;;9.76
37452;BMP280;23314;51.114;6.900;2023-03-14T11:02:10;99241.28;;;9.79
37452;BMP280;23314;51.114;6.900;2023-03-14T11:05:44;99250.06;;;9.89
37452;BMP280;23314;51.114;6.900;2023-03-14T11:11:18;99274.56;;;9.84
37452;BMP280;23314;51.114;6.900;2023-03-14T11:14:01;99299.75;;;9.70
37452;BMP280;23314;51.114;6.900;2023-03-14T11:16:42;99302.25;;;9.52
37452;BMP280;23314;51.114;6.900;2023-03-14T11:25:07;99340.88;;;9.05
37452;BMP280;23314;51.114;6.900;2023-03-14T11:33:15;99347.41;;;8.74
37452;BMP280;23314;51.114;6.900;2023-03-14T11:35:47;99374.13;;;8.83
37452;BMP280;23314;51.114;6.900;2023-03-14T11:38:33;99380.44;;;8.90
37452;BMP280;23314;51.114;6.900;2023-03-14T11:41:00;99379.91;;;8.95
37452;BMP280;23314;51.114;6.900;2023-03-14T11:43:37;99390.31;;;8.89
37452;BMP280;23314;51.114;6.900;2023-03-14T11:46:27;99404.00;;;8.75
37452;BMP280;23314;51.114;6.900;2023-03-14T11:49:08;99406.66;;;8.58
37452;BMP280;23314;51.114;6.900;2023-03-14T11:51:39;99425.53;;;8.47
37452;BMP280;23314;51.114;6.900;2023-03-14T11:54:16;99457.69;;;8.36
37452;BMP280;23314;51.114;6.900;2023-03-14T11:56:47;99447.56;;;8.31
37452;BMP280;23314;51.114;6.900;2023-03-14T11:59:21;99457.78;;;8.33
37452;BMP280;23314;51.114;6.900;2023-03-14T12:07:21;99473.31;;;8.34
37452;BMP280;23314;51.114;6.900;2023-03-14T12:09:50;99497.06;;;8.25
37452;BMP280;23314;51.114;6.900;2023-03-14T12:12:22;99495.34;;;8.15
37452;BMP280;23314;51.114;6.900;2023-03-14T12:14:54;99510.97;;;8.13
37452;BMP280;23314;51.114;6.900;2023-03-14T12:17:39;99515.38;;;8.19
37452;BMP280;23314;51.114;6.900;2023-03-14T12:20:15;99523.28;;;8.23
37452;BMP280;23314;51.114;6.900;2023-03-14T12:22:46;99530.91;;;8.21
37452;BMP280;23314;51.114;6.900;2023-03-14T12:25:27;99544.19;;;8.21
37452;BMP280;23314;51.114;6.900;2023-03-14T12:30:34;99563.25;;;8.16
37452;BMP280;23314;51.114;6.900;2023-03-14T12:35:42;99580.06;;;8.29
37452;BMP280;23314;51.114;6.900;2023-03-14T12:38:29;99585.91;;;8.57
37452;BMP280;23314;51.114;6.900;2023-03-14T12:41:03;99612.44;;;8.77
37452;BMP280;23314;51.114;6.900;2023-03-14T12:43:32;99605.69;;;8.89
37452;BMP280;23314;51.114;6.900;2023-03-14T12:48:44;99616.22;;;9.26
37452;BMP280;23314;51.114;6.900;2023-03-14T12:51:14;99621.09;;;9.44
37452;BMP280;23314;51.114;6.900;2023-03-14T12:59:32;99644.25;;;9.89
37452;BMP280;23314;51.114;6.900;2023-03-14T13:02:13;99648.84;;;10.02
37452;BMP280;23314;51.114;6.900;2023-03-14T13:05:00;99665.56;;;9.89
37452;BMP280;23314;51.114;6.900;2023-03-14T13:08:04;99663.84;;;9.95
37452;BMP280;23314;51.114;6.900;2023-03-14T13:10:23;99682.56;;;10.08
37452;BMP280;23314;51.114;6.900;2023-03-14T13:13:15;99687.25;;;10.17
37452;BMP280;23314;51.114;6.900;2023-03-14T13:15:45;99708.34;;;10.24
37452;BMP280;23314;51.114;6.900;2023-03-14T13:18:41;99705.38;;;10.09
37452;BMP280;23314;51.114;6.900;2023-03-14T13:21:18;99740.03;;;9.93
37452;BMP280;23314;51.114;6.900;2023-03-14T13:24:00;99747.66;;;9.61
37452;BMP280;23314;51.114;6.900;2023-03-14T13:26:37;99734.53;;;9.38
37452;BMP280;23314;51.114;6.900;2023-03-14T13:29:16;99750.41;;;9.25
37452;BMP280;23314;51.114;6.900;2023-03-14T13:31:46;99756.41;;;9.29
37452;BMP280;23314;51.114;6.900;2023-03-14T13:34:11;99770.53;;;9.26
37452;BMP280;23314;51.114;6.900;2023-03-14T13:36:37;99774.34;;;9.08
37452;BMP280;23314;51.114;6.900;2023-03-14T13:39:09;99791.75;;;8.93
37452;BMP280;23314;51.114;6.900;2023-03-14T13:41:38;99779.84;;;8.81
37452;BMP280;23314;51.114;6.900;2023-03-14T13:44:07;99777.38;;;8.70
37452;BMP280;23314;51.114;6.900;2023-03-14T13:46:34;99779.38;;;8.66
37452;BMP280;23314;51.114;6.900;2023-03-14T13:49:05;99787.16;;;8.77
37452;BMP280;23314;51.114;6.900;2023-03-14T13:51:31;99786.38;;;8.96
37452;BMP280;23314;51.114;6.900;2023-03-14T13:54:00;99796.56;;;9.18
37452;BMP280;23314;51.114;6.900;2023-03-14T13:56:31;99808.72;;;9.36
37452;BMP280;23314;51.114;6.900;2023-03-14T13:58:57;99812.63;;;9.31
37452;BMP280;23314;51.114;6.900;2023-03-14T14:01:25;99827.38;;;9.15
37452;BMP280;23314;51.114;6.900;2023-03-14T14:03:53;99821.94;;;9.03
37452;BMP280;23314;51.114;6.900;2023-03-14T14:06:25;99836.81;;;9.00
37452;BMP280;23314;51.114;6.900;2023-03-14T14:08:52;99833.34;;;8.83
37452;BMP280;23314;51.114;6.900;2023-03-14T14:11:37;99851.81;;;8.70
37452;BMP280;23314;51.114;6.900;2023-03-14T14:14:06;99853.44;;;8.67
37452;BMP280;23314;51.114;6.900;2023-03-14T14:16:33;99852.34;;;8.65
37452;BMP280;23314;51.114;6.900;2023-03-14T14:18:59;99861.16;;;8.58
37452;BMP280;23314;51.114;6.900;2023-03-14T14:21:25;99865.19;;;8.46
37452;BMP280;23314;51.114;6.900;2023-03-14T14:23:51;99876.41;;;8.34
37452;BMP280;23314;51.114;6.900;2023-03-14T14:26:18;99884.09;;;8.28
37452;BMP280;23314;51.114;6.900;2023-03-14T14:28:45;99879.50;;;8.29
37452;BMP280;23314;51.114;6.900;2023-03-14T14:33:44;99891.69;;;8.50
37452;BMP280;23314;51.114;6.900;2023-03-14T14:36:22;99892.59;;;8.63
37452;BMP280;23314;51.114;6.900;2023-03-14T14:38:59;99899.47;;;8.81
37452;BMP280;23314;51.114;6.900;2023-03-14T14:41:30;99902.72;;;8.92
37452;BMP280;23314;51.114;6.900;2023-03-14T14:43:55;99918.13;;;9.01
37452;BMP280;23314;51.114;6.900;2023-03-14T14:46:21;99920.94;;;9.14
37452;BMP280;23314;51.114;6.900;2023-03-14T14:48:47;99930.53;;;9.28
37452;BMP280;23314;51.114;6.900;2023-03-14T14:51:24;99939.03;;;9.39
37452;BMP280;23314;51.114;6.900;2023-03-14T14:54:01;99943.50;;;9.46
37452;BMP280;23314;51.114;6.900;2023-03-14T14:56:28;99947.75;;;9.60
37452;BMP280;23314;51.114;6.900;2023-03-14T14:59:01;99958.94;;;9.71
37452;BMP280;23314;51.114;6.900;2023-03-14T15:01:38;99956.84;;;9.79
37452;BMP280;23314;51.114;6.900;2023-03-14T15:04:11;99960.28;;;9.96
37452;BMP280;23314;51.114;6.900;2023-03-14T15:06:38;99972.88;;;10.12
37452;BMP280;23314;51.114;6.900;2023-03-14T15:09:05;99977.88;;;10.26
37452;BMP280;23314;51.114;6.900;2023-03-14T15:11:31;99982.59;;;10.35
37452;BMP280;23314;51.114;6.900;2023-03-14T15:13:56;99986.53;;;10.31